Lathrop, California
Current Conditions -  °F | °C
As of 7:55 PM on Sunday 21 Dec 2014 (Local Time) from KSCK Reporting Station
Clear Clear  
Wind Chill: 58°   Ceiling: Unl
Heat Index: 58°   Visibility: 9mi
Dew Point: 56°   Wind: 8mph
Humidity: 93%   Direction: 310°NW
Pressure: 30.24"   Gusts: NA
Location:  37.8°N, 121.3°W
Report Text: KSCK 220355Z 31007KT 9SM CLR 14/13 A3024 RMK AO2 SLP241 T01440133
Loading
Personal Weather Stations






























Interactive Weather Map New forecast layout! Learn more

10-Day Weather Forecast

Advertisements
Track Severe Weather on mobile